sensor_id;sensor_type;location;lat;lon;timestamp;pressure;altitude;pressure_sealevel;temperature;humidity
56042;BME280;48756;41.374;2.066;2023-04-04T00:01:01;100764.06;;;12.63;62.76
56042;BME280;48756;41.374;2.066;2023-04-04T00:03:26;100763.19;;;12.64;64.39
56042;BME280;48756;41.374;2.066;2023-04-04T00:05:51;100767.84;;;12.48;64.98
56042;BME280;48756;41.374;2.066;2023-04-04T00:08:16;100759.03;;;12.53;64.08
56042;BME280;48756;41.374;2.066;2023-04-04T00:10:42;100770.31;;;12.55;63.94
56042;BME280;48756;41.374;2.066;2023-04-04T00:13:07;100770.38;;;12.51;64.30
56042;BME280;48756;41.374;2.066;2023-04-04T00:15:33;100769.41;;;12.56;64.32
56042;BME280;48756;41.374;2.066;2023-04-04T00:18:00;100769.53;;;12.50;63.33
56042;BME280;48756;41.374;2.066;2023-04-04T00:20:26;100771.38;;;12.45;63.71
56042;BME280;48756;41.374;2.066;2023-04-04T00:22:51;100768.13;;;12.30;64.23
56042;BME280;48756;41.374;2.066;2023-04-04T00:25:17;100777.44;;;12.44;63.35
56042;BME280;48756;41.374;2.066;2023-04-04T00:27:42;100766.50;;;12.21;64.96
56042;BME280;48756;41.374;2.066;2023-04-04T00:30:08;100769.16;;;12.18;64.67
56042;BME280;48756;41.374;2.066;2023-04-04T00:32:33;100759.56;;;12.18;64.77
56042;BME280;48756;41.374;2.066;2023-04-04T00:34:58;100775.06;;;12.31;64.54
56042;BME280;48756;41.374;2.066;2023-04-04T00:37:24;100766.56;;;12.16;64.07
56042;BME280;48756;41.374;2.066;2023-04-04T00:39:49;100760.84;;;11.93;65.96
56042;BME280;48756;41.374;2.066;2023-04-04T00:42:15;100762.50;;;11.99;66.17
56042;BME280;48756;41.374;2.066;2023-04-04T00:44:40;100753.03;;;11.91;65.84
56042;BME280;48756;41.374;2.066;2023-04-04T00:47:05;100756.50;;;11.92;65.90
56042;BME280;48756;41.374;2.066;2023-04-04T00:49:34;100747.66;;;12.02;65.49
56042;BME280;48756;41.374;2.066;2023-04-04T00:51:59;100745.97;;;11.98;65.34
56042;BME280;48756;41.374;2.066;2023-04-04T00:54:24;100735.97;;;11.64;66.79
56042;BME280;48756;41.374;2.066;2023-04-04T00:56:50;100735.66;;;11.89;66.07
56042;BME280;48756;41.374;2.066;2023-04-04T00:59:19;100734.75;;;11.91;65.57
56042;BME280;48756;41.374;2.066;2023-04-04T01:01:46;100732.66;;;12.15;64.97
56042;BME280;48756;41.374;2.066;2023-04-04T01:04:11;100725.50;;;12.27;64.18
56042;BME280;48756;41.374;2.066;2023-04-04T01:06:37;100726.94;;;12.44;63.44
56042;BME280;48756;41.374;2.066;2023-04-04T01:09:03;100729.94;;;12.19;64.29
56042;BME280;48756;41.374;2.066;2023-04-04T01:11:28;100730.22;;;12.04;65.91
56042;BME280;48756;41.374;2.066;2023-04-04T01:13:53;100732.91;;;12.00;67.18
56042;BME280;48756;41.374;2.066;2023-04-04T01:16:20;100729.09;;;12.19;65.48
56042;BME280;48756;41.374;2.066;2023-04-04T01:18:46;100729.16;;;12.14;65.98
56042;BME280;48756;41.374;2.066;2023-04-04T01:21:12;100726.44;;;12.20;65.24
56042;BME280;48756;41.374;2.066;2023-04-04T01:26:09;100733.06;;;11.87;67.69
56042;BME280;48756;41.374;2.066;2023-04-04T01:28:34;100729.81;;;11.70;67.63
56042;BME280;48756;41.374;2.066;2023-04-04T01:31:00;100734.03;;;11.82;66.94
56042;BME280;48756;41.374;2.066;2023-04-04T01:33:33;100725.63;;;11.60;70.22
56042;BME280;48756;41.374;2.066;2023-04-04T01:36:17;100720.94;;;11.85;67.73
56042;BME280;48756;41.374;2.066;2023-04-04T01:41:11;100712.09;;;11.92;67.86
56042;BME280;48756;41.374;2.066;2023-04-04T01:43:37;100722.47;;;12.00;66.22
56042;BME280;48756;41.374;2.066;2023-04-04T01:46:02;100725.94;;;11.99;66.66
56042;BME280;48756;41.374;2.066;2023-04-04T01:48:28;100718.44;;;11.73;67.31
56042;BME280;48756;41.374;2.066;2023-04-04T01:50:54;100715.72;;;11.85;68.15
56042;BME280;48756;41.374;2.066;2023-04-04T01:53:19;100718.13;;;11.97;67.66
56042;BME280;48756;41.374;2.066;2023-04-04T01:55:45;100715.72;;;11.85;67.83
56042;BME280;48756;41.374;2.066;2023-04-04T01:58:10;100711.66;;;11.62;67.78
56042;BME280;48756;41.374;2.066;2023-04-04T02:00:35;100709.91;;;11.63;69.41
56042;BME280;48756;41.374;2.066;2023-04-04T02:03:01;100703.50;;;11.87;68.58
56042;BME280;48756;41.374;2.066;2023-04-04T02:05:26;100698.84;;;12.06;68.00
56042;BME280;48756;41.374;2.066;2023-04-04T02:07:52;100700.41;;;12.16;66.60
56042;BME280;48756;41.374;2.066;2023-04-04T02:10:17;100697.06;;;12.08;67.09
56042;BME280;48756;41.374;2.066;2023-04-04T02:12:43;100686.50;;;11.58;68.99
56042;BME280;48756;41.374;2.066;2023-04-04T02:15:08;100687.31;;;11.62;70.11
56042;BME280;48756;41.374;2.066;2023-04-04T02:17:34;100694.44;;;11.49;70.92
56042;BME280;48756;41.374;2.066;2023-04-04T02:19:59;100687.38;;;11.57;70.79
56042;BME280;48756;41.374;2.066;2023-04-04T02:22:25;100688.19;;;11.61;70.40
56042;BME280;48756;41.374;2.066;2023-04-04T02:24:50;100677.59;;;11.70;70.23
56042;BME280;48756;41.374;2.066;2023-04-04T02:27:17;100679.22;;;11.82;70.12
56042;BME280;48756;41.374;2.066;2023-04-04T02:29:43;100671.47;;;11.73;69.90
56042;BME280;48756;41.374;2.066;2023-04-04T02:32:08;100673.25;;;11.69;70.85
56042;BME280;48756;41.374;2.066;2023-04-04T02:34:33;100672.63;;;11.53;70.78
56042;BME280;48756;41.374;2.066;2023-04-04T02:36:59;100665.34;;;11.78;70.39
56042;BME280;48756;41.374;2.066;2023-04-04T02:39:24;100674.03;;;11.79;69.73
56042;BME280;48756;41.374;2.066;2023-04-04T02:41:49;100659.66;;;12.07;68.86
56042;BME280;48756;41.374;2.066;2023-04-04T02:44:15;100662.63;;;11.84;69.08
56042;BME280;48756;41.374;2.066;2023-04-04T02:46:40;100660.09;;;11.80;70.49
56042;BME280;48756;41.374;2.066;2023-04-04T02:49:06;100661.94;;;11.70;71.38
56042;BME280;48756;41.374;2.066;2023-04-04T02:51:32;100650.88;;;11.53;71.81
56042;BME280;48756;41.374;2.066;2023-04-04T02:53:57;100650.94;;;11.48;73.52
56042;BME280;48756;41.374;2.066;2023-04-04T02:56:23;100649.97;;;11.57;72.60
56042;BME280;48756;41.374;2.066;2023-04-04T02:58:48;100647.34;;;11.58;70.71
56042;BME280;48756;41.374;2.066;2023-04-04T03:01:13;100646.47;;;11.59;71.06
56042;BME280;48756;41.374;2.066;2023-04-04T03:03:39;100645.00;;;11.40;71.33
56042;BME280;48756;41.374;2.066;2023-04-04T03:06:04;100643.25;;;11.41;69.63
56042;BME280;48756;41.374;2.066;2023-04-04T03:08:29;100643.53;;;11.19;71.16
56042;BME280;48756;41.374;2.066;2023-04-04T03:10:55;100638.41;;;11.15;71.52
56042;BME280;48756;41.374;2.066;2023-04-04T03:13:23;100648.28;;;11.51;71.18
56042;BME280;48756;41.374;2.066;2023-04-04T03:15:49;100643.44;;;11.25;72.07
56042;BME280;48756;41.374;2.066;2023-04-04T03:18:14;100643.97;;;11.49;73.20
56042;BME280;48756;41.374;2.066;2023-04-04T03:20:39;100647.38;;;11.54;71.91
56042;BME280;48756;41.374;2.066;2023-04-04T03:23:07;100645.72;;;11.50;73.45
56042;BME280;48756;41.374;2.066;2023-04-04T03:25:33;100634.16;;;11.66;72.59
56042;BME280;48756;41.374;2.066;2023-04-04T03:28:06;100633.13;;;11.76;72.66
56042;BME280;48756;41.374;2.066;2023-04-04T03:30:31;100624.28;;;11.88;73.13
56042;BME280;48756;41.374;2.066;2023-04-04T03:32:57;100628.22;;;11.58;73.99
56042;BME280;48756;41.374;2.066;2023-04-04T03:35:22;100621.41;;;11.46;73.53
56042;BME280;48756;41.374;2.066;2023-04-04T03:37:47;100621.16;;;11.64;71.56
56042;BME280;48756;41.374;2.066;2023-04-04T03:40:12;100620.25;;;11.65;71.13
56042;BME280;48756;41.374;2.066;2023-04-04T03:42:38;100621.09;;;11.68;70.31
56042;BME280;48756;41.374;2.066;2023-04-04T03:45:03;100617.03;;;11.48;69.84
56042;BME280;48756;41.374;2.066;2023-04-04T03:47:29;100619.41;;;11.63;69.03
56042;BME280;48756;41.374;2.066;2023-04-04T03:49:54;100616.78;;;11.65;67.58
56042;BME280;48756;41.374;2.066;2023-04-04T03:52:20;100615.75;;;11.74;66.73
56042;BME280;48756;41.374;2.066;2023-04-04T03:54:48;100614.75;;;11.85;65.33
56042;BME280;48756;41.374;2.066;2023-04-04T03:57:13;100617.25;;;11.91;64.50
56042;BME280;48756;41.374;2.066;2023-04-04T03:59:41;100620.69;;;11.38;63.76
56042;BME280;48756;41.374;2.066;2023-04-04T04:02:06;100617.19;;;11.39;64.87
56042;BME280;48756;41.374;2.066;2023-04-04T04:04:32;100622.38;;;11.41;63.00
56042;BME280;48756;41.374;2.066;2023-04-04T04:06:57;100622.13;;;11.57;62.92
56042;BME280;48756;41.374;2.066;2023-04-04T04:09:22;100616.69;;;11.70;62.45
56042;BME280;48756;41.374;2.066;2023-04-04T04:11:48;100625.66;;;11.55;62.44
56042;BME280;48756;41.374;2.066;2023-04-04T04:14:13;100625.75;;;11.47;62.30
56042;BME280;48756;41.374;2.066;2023-04-04T04:16:38;100625.97;;;11.30;62.90
56042;BME280;48756;41.374;2.066;2023-04-04T04:19:05;100627.78;;;11.27;61.87
56042;BME280;48756;41.374;2.066;2023-04-04T04:21:30;100624.16;;;11.39;61.57
56042;BME280;48756;41.374;2.066;2023-04-04T04:23:56;100620.22;;;11.07;62.37
56042;BME280;48756;41.374;2.066;2023-04-04T04:26:21;100622.22;;;10.88;62.46
56042;BME280;48756;41.374;2.066;2023-04-04T04:28:46;100630.56;;;11.15;60.74
56042;BME280;48756;41.374;2.066;2023-04-04T04:31:12;100627.88;;;10.49;63.47
56042;BME280;48756;41.374;2.066;2023-04-04T04:33:37;100633.84;;;10.60;62.73
56042;BME280;48756;41.374;2.066;2023-04-04T04:36:03;100633.84;;;10.60;63.41
56042;BME280;48756;41.374;2.066;2023-04-04T04:38:29;100642.28;;;10.80;62.68
56042;BME280;48756;41.374;2.066;2023-04-04T04:40:55;100642.47;;;10.63;62.46
56042;BME280;48756;41.374;2.066;2023-04-04T04:43:20;100640.25;;;11.03;61.20
56042;BME280;48756;41.374;2.066;2023-04-04T04:45:46;100640.59;;;10.78;61.67
56042;BME280;48756;41.374;2.066;2023-04-04T04:48:11;100631.75;;;10.91;62.91
56042;BME280;48756;41.374;2.066;2023-04-04T04:50:37;100628.25;;;10.92;62.07
56042;BME280;48756;41.374;2.066;2023-04-04T04:53:02;100634.34;;;10.91;62.12
56042;BME280;48756;41.374;2.066;2023-04-04T04:55:28;100639.94;;;10.57;62.65
56042;BME280;48756;41.374;2.066;2023-04-04T04:57:53;100638.13;;;10.67;63.00
56042;BME280;48756;41.374;2.066;2023-04-04T05:00:19;100634.72;;;10.57;62.96
56042;BME280;48756;41.374;2.066;2023-04-04T05:02:44;100633.03;;;10.55;63.42
56042;BME280;48756;41.374;2.066;2023-04-04T05:05:10;100635.84;;;10.33;64.08
56042;BME280;48756;41.374;2.066;2023-04-04T05:07:35;100644.28;;;10.57;64.29
56042;BME280;48756;41.374;2.066;2023-04-04T05:15:57;100634.63;;;10.69;63.92
56042;BME280;48756;41.374;2.066;2023-04-04T05:18:23;100647.16;;;11.11;62.95
56042;BME280;48756;41.374;2.066;2023-04-04T05:20:54;100649.06;;;10.96;64.22
56042;BME280;48756;41.374;2.066;2023-04-04T05:23:20;100648.25;;;10.91;64.74
56042;BME280;48756;41.374;2.066;2023-04-04T05:25:49;100653.44;;;10.93;65.28
56042;BME280;48756;41.374;2.066;2023-04-04T05:28:15;100653.53;;;10.84;66.05
56042;BME280;48756;41.374;2.066;2023-04-04T05:30:41;100652.81;;;10.72;66.90
56042;BME280;48756;41.374;2.066;2023-04-04T05:33:06;100655.41;;;10.72;66.41
56042;BME280;48756;41.374;2.066;2023-04-04T05:35:31;100648.28;;;10.88;65.29
56042;BME280;48756;41.374;2.066;2023-04-04T05:37:57;100657.34;;;10.54;66.78
56042;BME280;48756;41.374;2.066;2023-04-04T05:40:22;100662.88;;;10.25;68.05
56042;BME280;48756;41.374;2.066;2023-04-04T05:42:55;100665.56;;;10.09;68.29
56042;BME280;48756;41.374;2.066;2023-04-04T05:45:21;100664.13;;;9.75;69.46
56042;BME280;48756;41.374;2.066;2023-04-04T05:47:46;100672.00;;;9.61;70.77
56042;BME280;48756;41.374;2.066;2023-04-04T05:50:11;100665.88;;;9.67;70.54
56042;BME280;48756;41.374;2.066;2023-04-04T05:52:37;100665.19;;;9.42;70.40
56042;BME280;48756;41.374;2.066;2023-04-04T05:55:02;100677.31;;;9.41;71.32
56042;BME280;48756;41.374;2.066;2023-04-04T05:57:28;100673.63;;;9.73;69.51
56042;BME280;48756;41.374;2.066;2023-04-04T05:59:53;100681.47;;;9.71;69.36
56042;BME280;48756;41.374;2.066;2023-04-04T06:02:18;100688.19;;;10.03;68.88
56042;BME280;48756;41.374;2.066;2023-04-04T06:04:44;100696.75;;;10.16;69.04
56042;BME280;48756;41.374;2.066;2023-04-04T06:07:09;100692.56;;;9.99;67.84
56042;BME280;48756;41.374;2.066;2023-04-04T06:09:35;100707.47;;;9.76;69.75
56042;BME280;48756;41.374;2.066;2023-04-04T06:12:00;100707.28;;;10.03;67.86
56042;BME280;48756;41.374;2.066;2023-04-04T06:14:26;100703.53;;;10.41;65.95
56042;BME280;48756;41.374;2.066;2023-04-04T06:16:51;100698.25;;;10.46;66.43
56042;BME280;48756;41.374;2.066;2023-04-04T06:19:16;100705.94;;;10.58;65.42
56042;BME280;48756;41.374;2.066;2023-04-04T06:21:42;100703.25;;;10.68;64.39
56042;BME280;48756;41.374;2.066;2023-04-04T06:24:07;100710.69;;;11.02;63.57
56042;BME280;48756;41.374;2.066;2023-04-04T06:26:32;100718.84;;;10.73;63.99
56042;BME280;48756;41.374;2.066;2023-04-04T06:28:58;100705.22;;;11.22;62.20
56042;BME280;48756;41.374;2.066;2023-04-04T06:31:23;100715.50;;;11.35;63.04
56042;BME280;48756;41.374;2.066;2023-04-04T06:33:49;100713.03;;;11.23;62.16
56042;BME280;48756;41.374;2.066;2023-04-04T06:36:14;100712.00;;;11.37;60.95
56042;BME280;48756;41.374;2.066;2023-04-04T06:38:39;100722.53;;;11.29;61.38
56042;BME280;48756;41.374;2.066;2023-04-04T06:41:05;100710.91;;;11.51;61.63
56042;BME280;48756;41.374;2.066;2023-04-04T06:43:30;100717.13;;;11.44;61.63
56042;BME280;48756;41.374;2.066;2023-04-04T06:45:56;100714.81;;;11.86;59.49
56042;BME280;48756;41.374;2.066;2023-04-04T06:48:21;100718.09;;;11.99;59.20
56042;BME280;48756;41.374;2.066;2023-04-04T06:50:46;100722.56;;;11.92;58.96
56042;BME280;48756;41.374;2.066;2023-04-04T06:53:12;100714.38;;;12.15;58.05
56042;BME280;48756;41.374;2.066;2023-04-04T06:55:38;100721.53;;;12.02;57.78
56042;BME280;48756;41.374;2.066;2023-04-04T06:58:03;100723.91;;;12.16;57.76
56042;BME280;48756;41.374;2.066;2023-04-04T07:00:29;100726.06;;;12.45;57.02
56042;BME280;48756;41.374;2.066;2023-04-04T07:02:59;100733.91;;;12.43;56.64
56042;BME280;48756;41.374;2.066;2023-04-04T07:05:25;100730.09;;;12.63;56.45
56042;BME280;48756;41.374;2.066;2023-04-04T07:07:51;100738.56;;;12.77;55.89
56042;BME280;48756;41.374;2.066;2023-04-04T07:10:19;100745.88;;;12.56;55.61
56042;BME280;48756;41.374;2.066;2023-04-04T07:12:45;100753.13;;;12.92;54.08
56042;BME280;48756;41.374;2.066;2023-04-04T07:15:10;100753.19;;;12.87;55.03
56042;BME280;48756;41.374;2.066;2023-04-04T07:17:37;100757.63;;;12.82;54.42
56042;BME280;48756;41.374;2.066;2023-04-04T07:20:03;100757.06;;;13.11;55.00
56042;BME280;48756;41.374;2.066;2023-04-04T07:22:29;100767.13;;;12.86;53.74
56042;BME280;48756;41.374;2.066;2023-04-04T07:24:55;100761.13;;;13.29;53.15
56042;BME280;48756;41.374;2.066;2023-04-04T07:27:20;100767.09;;;12.91;54.50
56042;BME280;48756;41.374;2.066;2023-04-04T07:29:46;100764.84;;;12.69;54.19
56042;BME280;48756;41.374;2.066;2023-04-04T07:32:11;100766.47;;;12.76;54.72
56042;BME280;48756;41.374;2.066;2023-04-04T07:34:36;100769.78;;;12.84;52.76
56042;BME280;48756;41.374;2.066;2023-04-04T07:37:02;100773.66;;;12.62;53.99
56042;BME280;48756;41.374;2.066;2023-04-04T07:39:27;100791.56;;;12.85;52.93
56042;BME280;48756;41.374;2.066;2023-04-04T07:41:53;100785.28;;;12.97;53.25
56042;BME280;48756;41.374;2.066;2023-04-04T07:44:18;100787.88;;;12.97;53.07
56042;BME280;48756;41.374;2.066;2023-04-04T07:46:43;100774.19;;;13.30;52.08
56042;BME280;48756;41.374;2.066;2023-04-04T07:49:09;100791.91;;;13.14;52.79
56042;BME280;48756;41.374;2.066;2023-04-04T07:51:34;100793.13;;;12.97;53.84
56042;BME280;48756;41.374;2.066;2023-04-04T07:54:00;100781.66;;;13.48;52.05
56042;BME280;48756;41.374;2.066;2023-04-04T07:56:26;100771.34;;;13.83;51.27
56042;BME280;48756;41.374;2.066;2023-04-04T07:58:51;100776.19;;;13.61;51.61
56042;BME280;48756;41.374;2.066;2023-04-04T08:01:17;100787.38;;;13.67;51.64
56042;BME280;48756;41.374;2.066;2023-04-04T08:03:42;100777.75;;;14.08;50.41
56042;BME280;48756;41.374;2.066;2023-04-04T08:06:07;100783.94;;;14.05;50.60
56042;BME280;48756;41.374;2.066;2023-04-04T08:08:33;100774.75;;;14.23;50.75
56042;BME280;48756;41.374;2.066;2023-04-04T08:10:58;100782.25;;;14.01;49.79
56042;BME280;48756;41.374;2.066;2023-04-04T08:13:23;100783.88;;;14.07;50.30
56042;BME280;48756;41.374;2.066;2023-04-04T08:15:49;100781.56;;;13.93;50.42
56042;BME280;48756;41.374;2.066;2023-04-04T08:18:14;100790.81;;;14.47;49.41
56042;BME280;48756;41.374;2.066;2023-04-04T08:20:40;100795.78;;;14.59;49.35
56042;BME280;48756;41.374;2.066;2023-04-04T08:23:05;100784.34;;;14.61;49.26
56042;BME280;48756;41.374;2.066;2023-04-04T08:25:30;100789.66;;;14.58;49.32
56042;BME280;48756;41.374;2.066;2023-04-04T08:27:56;100793.47;;;14.81;48.58
56042;BME280;48756;41.374;2.066;2023-04-04T08:30:21;100799.56;;;15.14;48.17
56042;BME280;48756;41.374;2.066;2023-04-04T08:32:47;100794.53;;;15.37;47.00
56042;BME280;48756;41.374;2.066;2023-04-04T08:35:12;100801.09;;;15.22;47.33
56042;BME280;48756;41.374;2.066;2023-04-04T08:37:44;100810.44;;;15.65;46.89
56042;BME280;48756;41.374;2.066;2023-04-04T08:40:13;100803.00;;;15.48;46.79
56042;BME280;48756;41.374;2.066;2023-04-04T08:42:39;100807.72;;;15.68;46.25
56042;BME280;48756;41.374;2.066;2023-04-04T08:45:04;100802.88;;;16.12;45.66
56042;BME280;48756;41.374;2.066;2023-04-04T08:47:31;100823.41;;;16.27;46.71
56042;BME280;48756;41.374;2.066;2023-04-04T08:50:02;100817.66;;;16.70;46.44
56042;BME280;48756;41.374;2.066;2023-04-04T08:52:28;100811.16;;;16.82;46.93
56042;BME280;48756;41.374;2.066;2023-04-04T08:54:55;100822.09;;;17.20;46.75
56042;BME280;48756;41.374;2.066;2023-04-04T08:57:21;100817.66;;;17.22;47.60
56042;BME280;48756;41.374;2.066;2023-04-04T08:59:47;100821.56;;;17.10;48.48
56042;BME280;48756;41.374;2.066;2023-04-04T09:02:18;100826.56;;;16.93;49.97
56042;BME280;48756;41.374;2.066;2023-04-04T09:04:47;100837.81;;;17.23;49.92
56042;BME280;48756;41.374;2.066;2023-04-04T09:07:13;100835.13;;;16.99;50.99
56042;BME280;48756;41.374;2.066;2023-04-04T09:09:40;100833.44;;;16.16;53.88
56042;BME280;48756;41.374;2.066;2023-04-04T09:12:06;100838.13;;;17.13;52.67
56042;BME280;48756;41.374;2.066;2023-04-04T09:14:32;100838.81;;;16.94;52.43
56042;BME280;48756;41.374;2.066;2023-04-04T09:16:59;100832.72;;;17.66;51.22
56042;BME280;48756;41.374;2.066;2023-04-04T09:19:24;100837.38;;;17.35;51.20
56042;BME280;48756;41.374;2.066;2023-04-04T09:21:49;100819.31;;;17.49;50.38
56042;BME280;48756;41.374;2.066;2023-04-04T09:24:15;100829.41;;;17.85;48.74
56042;BME280;48756;41.374;2.066;2023-04-04T09:26:50;100825.19;;;17.81;49.39
56042;BME280;48756;41.374;2.066;2023-04-04T09:29:19;100823.63;;;17.98;48.38
56042;BME280;48756;41.374;2.066;2023-04-04T09:31:45;100821.13;;;17.72;49.26
56042;BME280;48756;41.374;2.066;2023-04-04T09:34:11;100825.16;;;18.04;49.48
56042;BME280;48756;41.374;2.066;2023-04-04T09:36:37;100826.16;;;18.23;48.29
56042;BME280;48756;41.374;2.066;2023-04-04T09:39:03;100829.22;;;17.66;47.83
56042;BME280;48756;41.374;2.066;2023-04-04T09:41:28;100841.28;;;17.96;49.46
56042;BME280;48756;41.374;2.066;2023-04-04T09:43:54;100841.41;;;17.93;49.81
56042;BME280;48756;41.374;2.066;2023-04-04T09:46:21;100851.69;;;17.99;50.86
56042;BME280;48756;41.374;2.066;2023-04-04T09:48:47;100842.13;;;18.42;50.06
56042;BME280;48756;41.374;2.066;2023-04-04T09:51:13;100848.09;;;18.02;50.94
56042;BME280;48756;41.374;2.066;2023-04-04T09:53:41;100847.25;;;18.23;52.30
56042;BME280;48756;41.374;2.066;2023-04-04T09:56:11;100857.16;;;17.95;52.10
56042;BME280;48756;41.374;2.066;2023-04-04T09:58:37;100861.94;;;17.35;53.50
56042;BME280;48756;41.374;2.066;2023-04-04T10:01:03;100870.44;;;17.43;53.66
56042;BME280;48756;41.374;2.066;2023-04-04T10:03:32;100883.34;;;17.26;54.20
56042;BME280;48756;41.374;2.066;2023-04-04T10:08:24;100884.38;;;17.47;53.89
56042;BME280;48756;41.374;2.066;2023-04-04T10:10:51;100881.22;;;17.11;53.47
56042;BME280;48756;41.374;2.066;2023-04-04T10:13:23;100879.84;;;17.26;52.78
56042;BME280;48756;41.374;2.066;2023-04-04T10:15:50;100883.31;;;17.01;52.96
56042;BME280;48756;41.374;2.066;2023-04-04T10:18:16;100880.69;;;17.51;52.48
56042;BME280;48756;41.374;2.066;2023-04-04T10:20:42;100877.53;;;17.66;51.38
56042;BME280;48756;41.374;2.066;2023-04-04T10:23:07;100875.84;;;18.12;50.77
56042;BME280;48756;41.374;2.066;2023-04-04T10:25:33;100871.41;;;18.58;50.15
56042;BME280;48756;41.374;2.066;2023-04-04T10:27:59;100879.53;;;18.52;49.39
56042;BME280;48756;41.374;2.066;2023-04-04T10:30:24;100881.81;;;18.39;48.94
56042;BME280;48756;41.374;2.066;2023-04-04T10:32:56;100875.31;;;18.48;48.84
56042;BME280;48756;41.374;2.066;2023-04-04T10:35:28;100889.88;;;17.64;50.05
56042;BME280;48756;41.374;2.066;2023-04-04T10:37:58;100875.88;;;18.34;48.80
56042;BME280;48756;41.374;2.066;2023-04-04T10:40:29;100871.97;;;19.08;47.47
56042;BME280;48756;41.374;2.066;2023-04-04T10:42:57;100874.72;;;19.46;46.20
56042;BME280;48756;41.374;2.066;2023-04-04T10:45:26;100875.28;;;19.13;48.07
56042;BME280;48756;41.374;2.066;2023-04-04T10:47:53;100869.38;;;19.68;45.38
56042;BME280;48756;41.374;2.066;2023-04-04T10:50:18;100875.63;;;19.85;45.83
56042;BME280;48756;41.374;2.066;2023-04-04T10:52:44;100884.25;;;19.09;47.40
56042;BME280;48756;41.374;2.066;2023-04-04T10:55:11;100878.56;;;18.76;47.67
56042;BME280;48756;41.374;2.066;2023-04-04T10:57:40;100887.94;;;19.66;45.93
56042;BME280;48756;41.374;2.066;2023-04-04T11:07:55;100885.13;;;18.44;48.58
56042;BME280;48756;41.374;2.066;2023-04-04T11:10:22;100890.38;;;18.22;47.30
56042;BME280;48756;41.374;2.066;2023-04-04T11:12:50;100885.75;;;18.94;47.26
56042;BME280;48756;41.374;2.066;2023-04-04T11:15:20;100870.72;;;19.97;44.77
56042;BME280;48756;41.374;2.066;2023-04-04T11:20:14;100877.06;;;19.13;44.73
56042;BME280;48756;41.374;2.066;2023-04-04T11:22:40;100874.34;;;19.35;45.67
56042;BME280;48756;41.374;2.066;2023-04-04T11:25:40;100863.06;;;20.47;42.89
56042;BME280;48756;41.374;2.066;2023-04-04T11:28:02;100864.03;;;19.88;44.83
56042;BME280;48756;41.374;2.066;2023-04-04T11:30:28;100862.63;;;20.00;44.41
56042;BME280;48756;41.374;2.066;2023-04-04T11:32:57;100863.75;;;20.87;42.74
56042;BME280;48756;41.374;2.066;2023-04-04T11:35:23;100868.44;;;19.69;44.39
56042;BME280;48756;41.374;2.066;2023-04-04T11:40:32;100850.44;;;20.52;42.83
56042;BME280;48756;41.374;2.066;2023-04-04T11:42:58;100856.13;;;20.26;42.90
56042;BME280;48756;41.374;2.066;2023-04-04T11:45:27;100854.31;;;19.88;43.72
56042;BME280;48756;41.374;2.066;2023-04-04T11:47:54;100858.03;;;20.60;42.07
56042;BME280;48756;41.374;2.066;2023-04-04T11:50:20;100855.13;;;19.51;44.50
56042;BME280;48756;41.374;2.066;2023-04-04T11:52:45;100854.41;;;20.25;43.68
56042;BME280;48756;41.374;2.066;2023-04-04T11:55:17;100849.72;;;20.67;43.28
56042;BME280;48756;41.374;2.066;2023-04-04T11:57:44;100848.06;;;19.32;45.38
56042;BME280;48756;41.374;2.066;2023-04-04T12:00:10;100848.13;;;19.50;44.70
56042;BME280;48756;41.374;2.066;2023-04-04T12:02:36;100832.47;;;20.41;42.19
56042;BME280;48756;41.374;2.066;2023-04-04T12:05:03;100826.34;;;20.39;41.27
56042;BME280;48756;41.374;2.066;2023-04-04T12:07:30;100829.59;;;20.46;42.00
56042;BME280;48756;41.374;2.066;2023-04-04T12:09:56;100831.59;;;20.03;41.84
56042;BME280;48756;41.374;2.066;2023-04-04T12:12:22;100831.78;;;19.61;43.77
56042;BME280;48756;41.374;2.066;2023-04-04T12:14:48;100835.97;;;19.85;43.54
56042;BME280;48756;41.374;2.066;2023-04-04T12:17:16;100831.56;;;21.12;41.86
56042;BME280;48756;41.374;2.066;2023-04-04T12:19:42;100829.53;;;21.17;41.21
56042;BME280;48756;41.374;2.066;2023-04-04T12:22:07;100828.09;;;21.28;41.57
56042;BME280;48756;41.374;2.066;2023-04-04T12:24:34;100828.81;;;19.87;44.29
56042;BME280;48756;41.374;2.066;2023-04-04T12:27:00;100822.47;;;20.83;42.02
56042;BME280;48756;41.374;2.066;2023-04-04T12:29:27;100805.69;;;21.67;39.78
56042;BME280;48756;41.374;2.066;2023-04-04T12:31:54;100817.50;;;21.44;41.11
56042;BME280;48756;41.374;2.066;2023-04-04T12:34:23;100816.09;;;21.54;40.42
56042;BME280;48756;41.374;2.066;2023-04-04T12:36:52;100831.50;;;21.13;41.35
56042;BME280;48756;41.374;2.066;2023-04-04T12:39:18;100819.09;;;20.62;41.59
56042;BME280;48756;41.374;2.066;2023-04-04T12:41:49;100826.13;;;20.63;43.75
56042;BME280;48756;41.374;2.066;2023-04-04T12:44:37;100819.59;;;20.15;43.68
56042;BME280;48756;41.374;2.066;2023-04-04T12:47:05;100826.13;;;20.63;42.93
56042;BME280;48756;41.374;2.066;2023-04-04T12:49:41;100820.63;;;20.48;43.11
56042;BME280;48756;41.374;2.066;2023-04-04T12:52:15;100821.06;;;19.64;44.32
56042;BME280;48756;41.374;2.066;2023-04-04T12:54:40;100822.50;;;19.90;44.27
56042;BME280;48756;41.374;2.066;2023-04-04T12:57:06;100810.28;;;20.44;43.19
56042;BME280;48756;41.374;2.066;2023-04-04T12:59:32;100812.78;;;20.82;42.47
56042;BME280;48756;41.374;2.066;2023-04-04T13:02:04;100807.13;;;21.06;41.95
56042;BME280;48756;41.374;2.066;2023-04-04T13:04:34;100809.28;;;21.16;41.52
56042;BME280;48756;41.374;2.066;2023-04-04T13:06:59;100818.00;;;20.48;43.32
56042;BME280;48756;41.374;2.066;2023-04-04T13:09:26;100818.44;;;20.02;43.21
56042;BME280;48756;41.374;2.066;2023-04-04T13:11:58;100808.50;;;20.96;42.24